sensor_id;sensor_type;location;lat;lon;timestamp;temperature;humidity
53978;DHT22;39886;47.984;-1.586;2023-08-20T00:01:29;25.20;73.40
53978;DHT22;39886;47.984;-1.586;2023-08-20T00:03:55;25.20;73.50
53978;DHT22;39886;47.984;-1.586;2023-08-20T00:06:21;25.20;73.60
53978;DHT22;39886;47.984;-1.586;2023-08-20T00:08:47;25.10;73.40
53978;DHT22;39886;47.984;-1.586;2023-08-20T00:11:13;25.10;73.60
53978;DHT22;39886;47.984;-1.586;2023-08-20T00:13:39;25.20;73.80
53978;DHT22;39886;47.984;-1.586;2023-08-20T00:16:04;25.10;73.90
53978;DHT22;39886;47.984;-1.586;2023-08-20T00:18:30;25.10;73.80
53978;DHT22;39886;47.984;-1.586;2023-08-20T00:20:56;25.10;73.80
53978;DHT22;39886;47.984;-1.586;2023-08-20T00:23:22;25.10;74.10
53978;DHT22;39886;47.984;-1.586;2023-08-20T00:25:48;25.10;74.00
53978;DHT22;39886;47.984;-1.586;2023-08-20T00:28:13;25.10;74.00
53978;DHT22;39886;47.984;-1.586;2023-08-20T00:30:39;25.00;74.10
53978;DHT22;39886;47.984;-1.586;2023-08-20T00:33:04;25.10;74.20
53978;DHT22;39886;47.984;-1.586;2023-08-20T00:35:30;25.00;74.30
53978;DHT22;39886;47.984;-1.586;2023-08-20T00:37:56;25.00;74.10
53978;DHT22;39886;47.984;-1.586;2023-08-20T00:40:21;25.00;74.50
53978;DHT22;39886;47.984;-1.586;2023-08-20T00:42:47;25.00;74.10
53978;DHT22;39886;47.984;-1.586;2023-08-20T00:45:12;25.00;74.40
53978;DHT22;39886;47.984;-1.586;2023-08-20T00:47:38;25.00;74.10
53978;DHT22;39886;47.984;-1.586;2023-08-20T00:50:04;25.00;74.20
53978;DHT22;39886;47.984;-1.586;2023-08-20T00:52:32;25.00;74.60
53978;DHT22;39886;47.984;-1.586;2023-08-20T00:54:58;25.00;74.10
53978;DHT22;39886;47.984;-1.586;2023-08-20T00:57:24;25.00;74.70
53978;DHT22;39886;47.984;-1.586;2023-08-20T00:59:50;24.90;74.50
53978;DHT22;39886;47.984;-1.586;2023-08-20T01:02:16;24.90;74.70
53978;DHT22;39886;47.984;-1.586;2023-08-20T01:04:42;25.00;74.80
53978;DHT22;39886;47.984;-1.586;2023-08-20T01:07:18;24.90;74.40
53978;DHT22;39886;47.984;-1.586;2023-08-20T01:09:50;24.90;74.70
53978;DHT22;39886;47.984;-1.586;2023-08-20T01:12:16;24.90;74.90
53978;DHT22;39886;47.984;-1.586;2023-08-20T01:14:42;24.90;73.90
53978;DHT22;39886;47.984;-1.586;2023-08-20T01:17:07;24.90;74.20
53978;DHT22;39886;47.984;-1.586;2023-08-20T01:19:33;24.90;75.00
53978;DHT22;39886;47.984;-1.586;2023-08-20T01:22:10;24.90;74.70
53978;DHT22;39886;47.984;-1.586;2023-08-20T01:29:51;24.80;74.50
53978;DHT22;39886;47.984;-1.586;2023-08-20T01:32:17;24.80;74.90
53978;DHT22;39886;47.984;-1.586;2023-08-20T01:34:43;24.80;75.30
53978;DHT22;39886;47.984;-1.586;2023-08-20T01:37:10;24.80;74.20
53978;DHT22;39886;47.984;-1.586;2023-08-20T01:39:36;24.80;74.40
53978;DHT22;39886;47.984;-1.586;2023-08-20T01:42:02;24.80;75.00
53978;DHT22;39886;47.984;-1.586;2023-08-20T01:44:27;24.80;75.20
53978;DHT22;39886;47.984;-1.586;2023-08-20T01:46:53;24.80;75.50
53978;DHT22;39886;47.984;-1.586;2023-08-20T01:49:18;24.70;74.90
53978;DHT22;39886;47.984;-1.586;2023-08-20T01:51:44;24.70;75.00
53978;DHT22;39886;47.984;-1.586;2023-08-20T01:54:10;24.80;75.10
53978;DHT22;39886;47.984;-1.586;2023-08-20T01:56:35;24.70;74.90
53978;DHT22;39886;47.984;-1.586;2023-08-20T01:59:01;24.70;75.90
53978;DHT22;39886;47.984;-1.586;2023-08-20T02:01:27;24.70;75.40
53978;DHT22;39886;47.984;-1.586;2023-08-20T02:03:52;24.70;74.70
53978;DHT22;39886;47.984;-1.586;2023-08-20T02:06:19;24.70;74.90
53978;DHT22;39886;47.984;-1.586;2023-08-20T02:08:44;24.70;75.20
53978;DHT22;39886;47.984;-1.586;2023-08-20T02:11:10;24.70;75.40
53978;DHT22;39886;47.984;-1.586;2023-08-20T02:13:35;24.70;75.30
53978;DHT22;39886;47.984;-1.586;2023-08-20T02:16:01;24.70;75.10
53978;DHT22;39886;47.984;-1.586;2023-08-20T02:18:28;24.70;74.40
53978;DHT22;39886;47.984;-1.586;2023-08-20T02:20:53;24.70;75.10
53978;DHT22;39886;47.984;-1.586;2023-08-20T02:23:19;24.60;74.50
53978;DHT22;39886;47.984;-1.586;2023-08-20T02:25:44;24.60;75.00
53978;DHT22;39886;47.984;-1.586;2023-08-20T02:28:10;24.60;74.20
53978;DHT22;39886;47.984;-1.586;2023-08-20T02:30:42;24.60;74.40
53978;DHT22;39886;47.984;-1.586;2023-08-20T02:33:08;24.60;74.40
53978;DHT22;39886;47.984;-1.586;2023-08-20T02:35:33;24.60;75.20
53978;DHT22;39886;47.984;-1.586;2023-08-20T02:37:59;24.60;74.90
53978;DHT22;39886;47.984;-1.586;2023-08-20T02:40:24;24.60;75.00
53978;DHT22;39886;47.984;-1.586;2023-08-20T02:42:50;24.60;74.90
53978;DHT22;39886;47.984;-1.586;2023-08-20T02:45:15;24.50;75.00
53978;DHT22;39886;47.984;-1.586;2023-08-20T02:47:41;24.60;74.70
53978;DHT22;39886;47.984;-1.586;2023-08-20T02:50:07;24.50;75.40
53978;DHT22;39886;47.984;-1.586;2023-08-20T02:52:32;24.50;75.50
53978;DHT22;39886;47.984;-1.586;2023-08-20T02:54:58;24.50;75.20
53978;DHT22;39886;47.984;-1.586;2023-08-20T02:57:23;24.50;75.40
53978;DHT22;39886;47.984;-1.586;2023-08-20T02:59:50;24.50;75.70
53978;DHT22;39886;47.984;-1.586;2023-08-20T03:02:15;24.50;74.90
53978;DHT22;39886;47.984;-1.586;2023-08-20T03:04:41;24.50;73.90
53978;DHT22;39886;47.984;-1.586;2023-08-20T03:07:06;24.50;75.10
53978;DHT22;39886;47.984;-1.586;2023-08-20T03:09:32;24.50;74.60
53978;DHT22;39886;47.984;-1.586;2023-08-20T03:11:58;24.50;75.40
53978;DHT22;39886;47.984;-1.586;2023-08-20T03:14:23;24.50;75.00
53978;DHT22;39886;47.984;-1.586;2023-08-20T03:16:49;24.50;75.10
53978;DHT22;39886;47.984;-1.586;2023-08-20T03:19:15;24.50;75.20
53978;DHT22;39886;47.984;-1.586;2023-08-20T03:21:41;24.50;75.40
53978;DHT22;39886;47.984;-1.586;2023-08-20T03:24:07;24.50;75.40
53978;DHT22;39886;47.984;-1.586;2023-08-20T03:26:32;24.50;75.40
53978;DHT22;39886;47.984;-1.586;2023-08-20T03:28:58;24.40;75.40
53978;DHT22;39886;47.984;-1.586;2023-08-20T03:31:24;24.50;75.30
53978;DHT22;39886;47.984;-1.586;2023-08-20T03:33:50;24.40;75.40
53978;DHT22;39886;47.984;-1.586;2023-08-20T03:36:15;24.40;75.40
53978;DHT22;39886;47.984;-1.586;2023-08-20T03:38:41;24.40;76.00
53978;DHT22;39886;47.984;-1.586;2023-08-20T03:41:07;24.40;75.90
53978;DHT22;39886;47.984;-1.586;2023-08-20T03:43:33;24.40;75.80
53978;DHT22;39886;47.984;-1.586;2023-08-20T03:45:58;24.40;76.10
53978;DHT22;39886;47.984;-1.586;2023-08-20T03:48:24;24.40;74.60
53978;DHT22;39886;47.984;-1.586;2023-08-20T03:50:49;24.40;75.30
53978;DHT22;39886;47.984;-1.586;2023-08-20T03:53:15;24.40;75.90
53978;DHT22;39886;47.984;-1.586;2023-08-20T03:55:40;24.30;75.50
53978;DHT22;39886;47.984;-1.586;2023-08-20T03:58:06;24.40;75.40
53978;DHT22;39886;47.984;-1.586;2023-08-20T04:00:34;24.30;76.00
53978;DHT22;39886;47.984;-1.586;2023-08-20T04:02:59;24.30;75.90
53978;DHT22;39886;47.984;-1.586;2023-08-20T04:05:25;24.30;75.40
53978;DHT22;39886;47.984;-1.586;2023-08-20T04:07:50;24.30;75.40
53978;DHT22;39886;47.984;-1.586;2023-08-20T04:10:16;24.30;75.60
53978;DHT22;39886;47.984;-1.586;2023-08-20T04:12:41;24.30;75.80
53978;DHT22;39886;47.984;-1.586;2023-08-20T04:15:07;24.30;76.20
53978;DHT22;39886;47.984;-1.586;2023-08-20T04:17:33;24.30;75.90
53978;DHT22;39886;47.984;-1.586;2023-08-20T04:19:59;24.30;76.20
53978;DHT22;39886;47.984;-1.586;2023-08-20T04:22:24;24.30;75.70
53978;DHT22;39886;47.984;-1.586;2023-08-20T04:24:50;24.30;75.90
53978;DHT22;39886;47.984;-1.586;2023-08-20T04:27:16;24.30;75.50
53978;DHT22;39886;47.984;-1.586;2023-08-20T04:29:41;24.30;76.00
53978;DHT22;39886;47.984;-1.586;2023-08-20T04:32:07;24.20;75.40
53978;DHT22;39886;47.984;-1.586;2023-08-20T04:34:32;24.30;75.90
53978;DHT22;39886;47.984;-1.586;2023-08-20T04:36:58;24.20;75.00
53978;DHT22;39886;47.984;-1.586;2023-08-20T04:39:24;24.30;76.10
53978;DHT22;39886;47.984;-1.586;2023-08-20T04:41:49;24.30;75.70
53978;DHT22;39886;47.984;-1.586;2023-08-20T04:44:15;24.20;75.50
53978;DHT22;39886;47.984;-1.586;2023-08-20T04:46:41;24.20;75.80
53978;DHT22;39886;47.984;-1.586;2023-08-20T04:49:07;24.20;75.50
53978;DHT22;39886;47.984;-1.586;2023-08-20T04:51:32;24.20;75.70
53978;DHT22;39886;47.984;-1.586;2023-08-20T04:53:58;24.20;75.70
53978;DHT22;39886;47.984;-1.586;2023-08-20T04:56:23;24.20;75.70
53978;DHT22;39886;47.984;-1.586;2023-08-20T04:58:49;24.20;75.60
53978;DHT22;39886;47.984;-1.586;2023-08-20T05:01:15;24.20;75.90
53978;DHT22;39886;47.984;-1.586;2023-08-20T05:03:40;24.20;76.40
53978;DHT22;39886;47.984;-1.586;2023-08-20T05:06:06;24.20;75.40
53978;DHT22;39886;47.984;-1.586;2023-08-20T05:08:31;24.20;75.50
53978;DHT22;39886;47.984;-1.586;2023-08-20T05:10:57;24.20;76.10
53978;DHT22;39886;47.984;-1.586;2023-08-20T05:13:22;24.20;76.10
53978;DHT22;39886;47.984;-1.586;2023-08-20T05:15:49;24.20;76.20
53978;DHT22;39886;47.984;-1.586;2023-08-20T05:18:14;24.20;76.00
53978;DHT22;39886;47.984;-1.586;2023-08-20T05:20:40;24.10;76.00
53978;DHT22;39886;47.984;-1.586;2023-08-20T05:23:06;24.10;76.00
53978;DHT22;39886;47.984;-1.586;2023-08-20T05:25:32;24.10;76.30
53978;DHT22;39886;47.984;-1.586;2023-08-20T05:27:57;24.10;76.30
53978;DHT22;39886;47.984;-1.586;2023-08-20T05:30:23;24.10;76.70
53978;DHT22;39886;47.984;-1.586;2023-08-20T05:32:49;24.10;76.60
53978;DHT22;39886;47.984;-1.586;2023-08-20T05:35:14;24.10;75.50
53978;DHT22;39886;47.984;-1.586;2023-08-20T05:37:40;24.10;75.90
53978;DHT22;39886;47.984;-1.586;2023-08-20T05:40:05;24.10;76.30
53978;DHT22;39886;47.984;-1.586;2023-08-20T05:42:31;24.20;76.10
53978;DHT22;39886;47.984;-1.586;2023-08-20T05:44:57;24.10;75.80
53978;DHT22;39886;47.984;-1.586;2023-08-20T05:47:22;24.10;75.80
53978;DHT22;39886;47.984;-1.586;2023-08-20T05:49:48;24.10;76.50
53978;DHT22;39886;47.984;-1.586;2023-08-20T05:52:13;24.10;76.30
53978;DHT22;39886;47.984;-1.586;2023-08-20T05:54:39;24.10;76.20
53978;DHT22;39886;47.984;-1.586;2023-08-20T05:57:04;24.10;76.10
53978;DHT22;39886;47.984;-1.586;2023-08-20T05:59:30;24.10;75.70
53978;DHT22;39886;47.984;-1.586;2023-08-20T06:01:55;24.10;75.90
53978;DHT22;39886;47.984;-1.586;2023-08-20T06:04:21;24.20;76.20
53978;DHT22;39886;47.984;-1.586;2023-08-20T06:06:47;24.20;76.50
53978;DHT22;39886;47.984;-1.586;2023-08-20T06:09:13;24.20;76.20
53978;DHT22;39886;47.984;-1.586;2023-08-20T06:11:38;24.20;76.40
53978;DHT22;39886;47.984;-1.586;2023-08-20T06:14:04;24.20;76.00
53978;DHT22;39886;47.984;-1.586;2023-08-20T06:16:30;24.20;75.60
53978;DHT22;39886;47.984;-1.586;2023-08-20T06:18:57;24.20;76.10
53978;DHT22;39886;47.984;-1.586;2023-08-20T06:21:22;24.20;75.80
53978;DHT22;39886;47.984;-1.586;2023-08-20T06:23:48;24.20;76.20
53978;DHT22;39886;47.984;-1.586;2023-08-20T06:26:13;24.30;76.10
53978;DHT22;39886;47.984;-1.586;2023-08-20T06:28:39;24.30;76.40
53978;DHT22;39886;47.984;-1.586;2023-08-20T06:31:04;24.30;75.80
53978;DHT22;39886;47.984;-1.586;2023-08-20T06:33:30;24.30;75.20
53978;DHT22;39886;47.984;-1.586;2023-08-20T06:35:56;24.30;76.20
53978;DHT22;39886;47.984;-1.586;2023-08-20T06:38:21;24.30;75.20
53978;DHT22;39886;47.984;-1.586;2023-08-20T06:40:47;24.40;75.80
53978;DHT22;39886;47.984;-1.586;2023-08-20T06:43:13;24.40;75.80
53978;DHT22;39886;47.984;-1.586;2023-08-20T06:45:38;24.40;75.80
53978;DHT22;39886;47.984;-1.586;2023-08-20T06:48:04;24.40;75.70
53978;DHT22;39886;47.984;-1.586;2023-08-20T06:50:30;24.40;75.60
53978;DHT22;39886;47.984;-1.586;2023-08-20T06:52:56;24.50;75.50
53978;DHT22;39886;47.984;-1.586;2023-08-20T06:55:22;24.50;75.50
53978;DHT22;39886;47.984;-1.586;2023-08-20T06:57:47;24.50;76.00
53978;DHT22;39886;47.984;-1.586;2023-08-20T07:00:13;24.50;75.40
53978;DHT22;39886;47.984;-1.586;2023-08-20T07:02:38;24.50;75.30
53978;DHT22;39886;47.984;-1.586;2023-08-20T07:05:04;24.60;75.30
53978;DHT22;39886;47.984;-1.586;2023-08-20T07:07:29;24.60;75.20
53978;DHT22;39886;47.984;-1.586;2023-08-20T07:09:55;24.60;74.80
53978;DHT22;39886;47.984;-1.586;2023-08-20T07:12:21;24.70;75.90
53978;DHT22;39886;47.984;-1.586;2023-08-20T07:14:46;24.70;75.30
53978;DHT22;39886;47.984;-1.586;2023-08-20T07:17:12;24.70;75.50
53978;DHT22;39886;47.984;-1.586;2023-08-20T07:19:37;24.70;74.30
53978;DHT22;39886;47.984;-1.586;2023-08-20T07:22:03;24.70;74.70
53978;DHT22;39886;47.984;-1.586;2023-08-20T07:24:29;24.80;74.40
53978;DHT22;39886;47.984;-1.586;2023-08-20T07:26:55;24.80;74.70
53978;DHT22;39886;47.984;-1.586;2023-08-20T07:29:26;24.80;74.90
53978;DHT22;39886;47.984;-1.586;2023-08-20T07:31:51;24.90;74.60
53978;DHT22;39886;47.984;-1.586;2023-08-20T07:34:17;24.90;75.40
53978;DHT22;39886;47.984;-1.586;2023-08-20T07:36:44;24.90;74.70
53978;DHT22;39886;47.984;-1.586;2023-08-20T07:39:09;25.00;74.80
53978;DHT22;39886;47.984;-1.586;2023-08-20T07:41:35;25.00;74.90
53978;DHT22;39886;47.984;-1.586;2023-08-20T07:44:00;25.00;75.30
53978;DHT22;39886;47.984;-1.586;2023-08-20T07:46:26;25.00;74.90
53978;DHT22;39886;47.984;-1.586;2023-08-20T07:48:52;25.00;75.00
53978;DHT22;39886;47.984;-1.586;2023-08-20T07:51:17;25.10;74.60
53978;DHT22;39886;47.984;-1.586;2023-08-20T07:53:43;25.10;75.10
53978;DHT22;39886;47.984;-1.586;2023-08-20T07:56:08;25.10;74.40
53978;DHT22;39886;47.984;-1.586;2023-08-20T07:58:34;25.20;74.90
53978;DHT22;39886;47.984;-1.586;2023-08-20T08:01:00;25.20;74.90
53978;DHT22;39886;47.984;-1.586;2023-08-20T08:03:25;25.20;74.80
53978;DHT22;39886;47.984;-1.586;2023-08-20T08:05:54;25.20;74.30
53978;DHT22;39886;47.984;-1.586;2023-08-20T08:08:20;25.20;74.90
53978;DHT22;39886;47.984;-1.586;2023-08-20T08:10:45;25.30;74.40
53978;DHT22;39886;47.984;-1.586;2023-08-20T08:13:14;25.30;74.10
53978;DHT22;39886;47.984;-1.586;2023-08-20T08:15:40;25.30;74.10
53978;DHT22;39886;47.984;-1.586;2023-08-20T08:18:06;25.40;73.80
53978;DHT22;39886;47.984;-1.586;2023-08-20T08:20:32;25.30;74.10
53978;DHT22;39886;47.984;-1.586;2023-08-20T08:22:58;25.40;74.10
53978;DHT22;39886;47.984;-1.586;2023-08-20T08:25:23;25.40;73.60
53978;DHT22;39886;47.984;-1.586;2023-08-20T08:27:49;25.40;73.90
53978;DHT22;39886;47.984;-1.586;2023-08-20T08:30:15;25.50;73.80
53978;DHT22;39886;47.984;-1.586;2023-08-20T08:32:40;25.50;74.00
53978;DHT22;39886;47.984;-1.586;2023-08-20T08:35:06;25.50;73.30
53978;DHT22;39886;47.984;-1.586;2023-08-20T08:37:32;25.60;73.50
53978;DHT22;39886;47.984;-1.586;2023-08-20T08:39:58;25.60;73.40
53978;DHT22;39886;47.984;-1.586;2023-08-20T08:42:23;25.60;74.10
53978;DHT22;39886;47.984;-1.586;2023-08-20T08:44:52;25.60;73.90
53978;DHT22;39886;47.984;-1.586;2023-08-20T08:47:18;25.60;73.80
53978;DHT22;39886;47.984;-1.586;2023-08-20T08:49:44;25.60;73.60
53978;DHT22;39886;47.984;-1.586;2023-08-20T08:52:11;25.60;73.20
53978;DHT22;39886;47.984;-1.586;2023-08-20T08:54:37;25.70;73.00
53978;DHT22;39886;47.984;-1.586;2023-08-20T08:57:02;25.70;73.50
53978;DHT22;39886;47.984;-1.586;2023-08-20T08:59:28;25.70;73.00
53978;DHT22;39886;47.984;-1.586;2023-08-20T09:01:53;25.70;73.00
53978;DHT22;39886;47.984;-1.586;2023-08-20T09:04:19;25.80;72.90
53978;DHT22;39886;47.984;-1.586;2023-08-20T09:06:45;25.80;72.40
53978;DHT22;39886;47.984;-1.586;2023-08-20T09:09:12;25.80;72.50
53978;DHT22;39886;47.984;-1.586;2023-08-20T09:11:38;25.90;72.60
53978;DHT22;39886;47.984;-1.586;2023-08-20T09:14:04;25.80;73.40
53978;DHT22;39886;47.984;-1.586;2023-08-20T09:16:30;25.90;73.30
53978;DHT22;39886;47.984;-1.586;2023-08-20T09:18:57;25.90;72.80
53978;DHT22;39886;47.984;-1.586;2023-08-20T09:21:26;25.90;73.20
53978;DHT22;39886;47.984;-1.586;2023-08-20T09:23:53;25.90;72.90
53978;DHT22;39886;47.984;-1.586;2023-08-20T09:26:19;25.90;73.00
53978;DHT22;39886;47.984;-1.586;2023-08-20T09:28:45;26.00;73.20
53978;DHT22;39886;47.984;-1.586;2023-08-20T09:31:12;26.00;72.80
53978;DHT22;39886;47.984;-1.586;2023-08-20T09:33:50;26.00;72.80
53978;DHT22;39886;47.984;-1.586;2023-08-20T09:36:16;26.00;72.60
53978;DHT22;39886;47.984;-1.586;2023-08-20T09:38:42;26.00;72.20
53978;DHT22;39886;47.984;-1.586;2023-08-20T09:41:08;26.00;72.20
53978;DHT22;39886;47.984;-1.586;2023-08-20T09:43:33;26.00;72.60
53978;DHT22;39886;47.984;-1.586;2023-08-20T09:46:03;26.10;72.70
53978;DHT22;39886;47.984;-1.586;2023-08-20T09:48:29;26.10;72.60
53978;DHT22;39886;47.984;-1.586;2023-08-20T09:50:58;26.10;72.30
53978;DHT22;39886;47.984;-1.586;2023-08-20T09:53:35;26.10;72.00
53978;DHT22;39886;47.984;-1.586;2023-08-20T09:56:46;26.10;72.00
53978;DHT22;39886;47.984;-1.586;2023-08-20T09:58:51;26.10;71.30
53978;DHT22;39886;47.984;-1.586;2023-08-20T10:01:17;26.20;72.30
53978;DHT22;39886;47.984;-1.586;2023-08-20T10:03:43;26.10;72.50
53978;DHT22;39886;47.984;-1.586;2023-08-20T10:06:09;26.20;72.00
53978;DHT22;39886;47.984;-1.586;2023-08-20T10:08:35;26.20;72.10
53978;DHT22;39886;47.984;-1.586;2023-08-20T10:11:01;26.20;71.90
53978;DHT22;39886;47.984;-1.586;2023-08-20T10:13:26;26.20;71.80
53978;DHT22;39886;47.984;-1.586;2023-08-20T10:15:52;26.20;71.60
53978;DHT22;39886;47.984;-1.586;2023-08-20T10:18:20;26.20;72.20
53978;DHT22;39886;47.984;-1.586;2023-08-20T10:20:49;26.20;71.50
53978;DHT22;39886;47.984;-1.586;2023-08-20T10:23:15;26.30;71.40
53978;DHT22;39886;47.984;-1.586;2023-08-20T10:25:44;26.30;71.50
53978;DHT22;39886;47.984;-1.586;2023-08-20T10:28:12;26.20;71.80
53978;DHT22;39886;47.984;-1.586;2023-08-20T10:30:46;26.30;71.60
53978;DHT22;39886;47.984;-1.586;2023-08-20T10:33:25;26.30;72.40
53978;DHT22;39886;47.984;-1.586;2023-08-20T10:35:51;26.30;71.70
53978;DHT22;39886;47.984;-1.586;2023-08-20T10:38:18;26.30;70.90
53978;DHT22;39886;47.984;-1.586;2023-08-20T10:40:56;26.30;71.80
53978;DHT22;39886;47.984;-1.586;2023-08-20T10:46:03;26.30;71.70
53978;DHT22;39886;47.984;-1.586;2023-08-20T10:48:29;26.30;71.90
53978;DHT22;39886;47.984;-1.586;2023-08-20T10:50:56;26.30;71.90
53978;DHT22;39886;47.984;-1.586;2023-08-20T10:53:22;26.30;71.50
53978;DHT22;39886;47.984;-1.586;2023-08-20T10:55:48;26.30;71.20
53978;DHT22;39886;47.984;-1.586;2023-08-20T10:58:14;26.40;72.00
53978;DHT22;39886;47.984;-1.586;2023-08-20T11:00:39;26.30;71.30
53978;DHT22;39886;47.984;-1.586;2023-08-20T11:03:05;26.40;71.60
53978;DHT22;39886;47.984;-1.586;2023-08-20T11:05:31;26.40;71.90
53978;DHT22;39886;47.984;-1.586;2023-08-20T11:07:57;26.40;71.30
53978;DHT22;39886;47.984;-1.586;2023-08-20T11:10:22;26.40;71.80
53978;DHT22;39886;47.984;-1.586;2023-08-20T11:12:49;26.40;71.50
53978;DHT22;39886;47.984;-1.586;2023-08-20T11:15:14;26.40;71.50
53978;DHT22;39886;47.984;-1.586;2023-08-20T11:17:40;26.40;71.60
53978;DHT22;39886;47.984;-1.586;2023-08-20T11:20:07;26.40;71.10
53978;DHT22;39886;47.984;-1.586;2023-08-20T11:22:33;26.40;71.50
53978;DHT22;39886;47.984;-1.586;2023-08-20T11:24:59;26.40;71.80
53978;DHT22;39886;47.984;-1.586;2023-08-20T11:27:28;26.50;72.10
53978;DHT22;39886;47.984;-1.586;2023-08-20T11:29:53;26.50;71.20
53978;DHT22;39886;47.984;-1.586;2023-08-20T11:32:23;26.50;71.10
53978;DHT22;39886;47.984;-1.586;2023-08-20T11:34:48;26.50;71.30
53978;DHT22;39886;47.984;-1.586;2023-08-20T11:37:17;26.50;70.80
53978;DHT22;39886;47.984;-1.586;2023-08-20T11:39:43;26.50;71.20
53978;DHT22;39886;47.984;-1.586;2023-08-20T11:42:10;26.50;71.30
53978;DHT22;39886;47.984;-1.586;2023-08-20T11:44:42;26.50;71.70
53978;DHT22;39886;47.984;-1.586;2023-08-20T11:47:18;26.50;71.30
53978;DHT22;39886;47.984;-1.586;2023-08-20T11:49:44;26.50;71.40
53978;DHT22;39886;47.984;-1.586;2023-08-20T11:52:10;26.50;71.20
53978;DHT22;39886;47.984;-1.586;2023-08-20T11:54:36;26.50;70.50
53978;DHT22;39886;47.984;-1.586;2023-08-20T11:57:05;26.50;70.60
53978;DHT22;39886;47.984;-1.586;2023-08-20T11:59:31;26.60;71.90
53978;DHT22;39886;47.984;-1.586;2023-08-20T12:01:57;26.60;70.20
53978;DHT22;39886;47.984;-1.586;2023-08-20T12:04:28;26.60;70.30
53978;DHT22;39886;47.984;-1.586;2023-08-20T12:07:27;26.60;70.80
53978;DHT22;39886;47.984;-1.586;2023-08-20T12:09:46;26.60;71.00
53978;DHT22;39886;47.984;-1.586;2023-08-20T12:12:13;26.60;70.40
53978;DHT22;39886;47.984;-1.586;2023-08-20T12:14:39;26.60;71.10
53978;DHT22;39886;47.984;-1.586;2023-08-20T12:17:07;26.60;71.40
53978;DHT22;39886;47.984;-1.586;2023-08-20T12:19:33;26.60;70.50
53978;DHT22;39886;47.984;-1.586;2023-08-20T12:21:58;26.60;70.40
53978;DHT22;39886;47.984;-1.586;2023-08-20T12:24:24;26.60;70.90
53978;DHT22;39886;47.984;-1.586;2023-08-20T12:26:51;26.60;70.10
53978;DHT22;39886;47.984;-1.586;2023-08-20T12:29:16;26.60;70.40
53978;DHT22;39886;47.984;-1.586;2023-08-20T12:31:42;26.60;70.60
53978;DHT22;39886;47.984;-1.586;2023-08-20T12:34:08;26.60;70.20
53978;DHT22;39886;47.984;-1.586;2023-08-20T12:36:34;26.70;71.00
53978;DHT22;39886;47.984;-1.586;2023-08-20T12:39:00;26.70;70.50
53978;DHT22;39886;47.984;-1.586;2023-08-20T12:41:26;26.70;70.40
53978;DHT22;39886;47.984;-1.586;2023-08-20T12:43:51;26.70;70.40
53978;DHT22;39886;47.984;-1.586;2023-08-20T12:46:17;26.70;70.10
53978;DHT22;39886;47.984;-1.586;2023-08-20T12:48:43;26.70;70.20
53978;DHT22;39886;47.984;-1.586;2023-08-20T12:51:08;26.70;70.40
53978;DHT22;39886;47.984;-1.586;2023-08-20T12:53:37;26.70;70.70
53978;DHT22;39886;47.984;-1.586;2023-08-20T12:56:03;26.70;70.30
53978;DHT22;39886;47.984;-1.586;2023-08-20T12:58:29;26.70;70.60
53978;DHT22;39886;47.984;-1.586;2023-08-20T13:00:54;26.70;70.40
53978;DHT22;39886;47.984;-1.586;2023-08-20T13:03:20;26.70;70.80
53978;DHT22;39886;47.984;-1.586;2023-08-20T13:05:46;26.70;70.60
53978;DHT22;39886;47.984;-1.586;2023-08-20T13:08:11;26.70;70.00
53978;DHT22;39886;47.984;-1.586;2023-08-20T13:10:40;26.80;70.50
53978;DHT22;39886;47.984;-1.586;2023-08-20T13:13:08;26.80;70.50
53978;DHT22;39886;47.984;-1.586;2023-08-20T13:15:34;26.70;70.60
53978;DHT22;39886;47.984;-1.586;2023-08-20T13:18:00;26.80;70.30
53978;DHT22;39886;47.984;-1.586;2023-08-20T13:20:25;26.80;70.80
53978;DHT22;39886;47.984;-1.586;2023-08-20T13:22:52;26.80;70.50
53978;DHT22;39886;47.984;-1.586;2023-08-20T13:25:18;26.80;70.40
53978;DHT22;39886;47.984;-1.586;2023-08-20T13:27:46;26.80;70.40
53978;DHT22;39886;47.984;-1.586;2023-08-20T13:30:11;26.80;70.30
53978;DHT22;39886;47.984;-1.586;2023-08-20T13:32:37;26.80;70.10
53978;DHT22;39886;47.984;-1.586;2023-08-20T13:35:03;26.80;70.20
53978;DHT22;39886;47.984;-1.586;2023-08-20T13:37:33;26.80;69.20
53978;DHT22;39886;47.984;-1.586;2023-08-20T13:39:58;26.80;70.10
53978;DHT22;39886;47.984;-1.586;2023-08-20T13:42:24;26.80;69.70
53978;DHT22;39886;47.984;-1.586;2023-08-20T13:44:50;26.80;69.90
53978;DHT22;39886;47.984;-1.586;2023-08-20T13:47:15;26.80;69.80
53978;DHT22;39886;47.984;-1.586;2023-08-20T13:49:41;27.00;69.80
53978;DHT22;39886;47.984;-1.586;2023-08-20T13:52:07;27.10;69.30
53978;DHT22;39886;47.984;-1.586;2023-08-20T13:54:34;27.00;69.00
53978;DHT22;39886;47.984;-1.586;2023-08-20T13:57:00;27.00;69.30
53978;DHT22;39886;47.984;-1.586;2023-08-20T13:59:25;27.00;69.10
53978;DHT22;39886;47.984;-1.586;2023-08-20T14:01:51;27.00;69.60
53978;DHT22;39886;47.984;-1.586;2023-08-20T14:04:17;26.90;69.50
53978;DHT22;39886;47.984;-1.586;2023-08-20T14:06:42;26.90;69.70
53978;DHT22;39886;47.984;-1.586;2023-08-20T14:09:08;27.00;69.80
53978;DHT22;39886;47.984;-1.586;2023-08-20T14:11:33;27.00;69.30
53978;DHT22;39886;47.984;-1.586;2023-08-20T14:13:59;27.10;69.60
53978;DHT22;39886;47.984;-1.586;2023-08-20T14:16:25;27.20;68.40
53978;DHT22;39886;47.984;-1.586;2023-08-20T14:18:50;27.20;68.90
53978;DHT22;39886;47.984;-1.586;2023-08-20T14:23:42;27.10;65.30
53978;DHT22;39886;47.984;-1.586;2023-08-20T14:26:07;27.10;66.00
53978;DHT22;39886;47.984;-1.586;2023-08-20T14:28:33;27.00;66.00
53978;DHT22;39886;47.984;-1.586;2023-08-20T14:31:02;27.00;66.00
53978;DHT22;39886;47.984;-1.586;2023-08-20T14:33:31;27.00;66.00
53978;DHT22;39886;47.984;-1.586;2023-08-20T14:35:57;27.00;66.10
53978;DHT22;39886;47.984;-1.586;2023-08-20T14:38:22;27.00;66.10
53978;DHT22;39886;47.984;-1.586;2023-08-20T14:40:48;27.00;66.20
53978;DHT22;39886;47.984;-1.586;2023-08-20T14:43:14;26.90;66.10
53978;DHT22;39886;47.984;-1.586;2023-08-20T14:45:39;26.90;66.10
53978;DHT22;39886;47.984;-1.586;2023-08-20T14:48:05;26.90;66.10
53978;DHT22;39886;47.984;-1.586;2023-08-20T14:50:31;26.90;66.00
53978;DHT22;39886;47.984;-1.586;2023-08-20T14:52:57;26.90;66.10
53978;DHT22;39886;47.984;-1.586;2023-08-20T14:55:22;26.90;66.10
53978;DHT22;39886;47.984;-1.586;2023-08-20T14:57:48;26.90;66.20
53978;DHT22;39886;47.984;-1.586;2023-08-20T15:00:13;26.90;66.10
53978;DHT22;39886;47.984;-1.586;2023-08-20T15:02:43;26.90;66.10
53978;DHT22;39886;47.984;-1.586;2023-08-20T15:05:09;26.90;66.20
53978;DHT22;39886;47.984;-1.586;2023-08-20T15:07:35;26.90;66.00
53978;DHT22;39886;47.984;-1.586;2023-08-20T15:10:01;26.90;66.60
53978;DHT22;39886;47.984;-1.586;2023-08-20T15:12:27;27.00;65.90
53978;DHT22;39886;47.984;-1.586;2023-08-20T15:14:52;27.00;65.80
53978;DHT22;39886;47.984;-1.586;2023-08-20T15:17:18;27.00;65.70
53978;DHT22;39886;47.984;-1.586;2023-08-20T15:19:43;27.00;65.80